Patterson, Arkansas
Current Conditions -  °F | °C
As of 4:07 AM on Friday 19 Dec 2014 (Local Time) from KM19 Reporting Station
Haze Haze  
Wind Chill: 33°   Ceiling: 4000
Heat Index: 39°   Visibility: 6mi
Dew Point: 37°   Wind: 9mph
Humidity: 93%   Direction: 50°NE
Pressure: 30.24"   Gusts: NA
Location:  35.26°N, 91.24°W
Report Text: KM19 191007Z AUTO 05008KT 6SM BR FEW007 OVC040 04/03 A3024 RMK AO2
Loading
Personal Weather Stations






























Interactive Weather Map New forecast layout! Learn more

10-Day Weather Forecast

Advertisements
Track Severe Weather on mobile